createdAt,value
2023-02-28T00:00:09.057Z,19.68
2023-02-28T00:01:09.043Z,19.68
2023-02-28T00:02:09.213Z,19.68
2023-02-28T00:03:09.065Z,19.68
2023-02-28T00:04:09.020Z,19.68
2023-02-28T00:05:08.998Z,19.68
2023-02-28T00:06:09.004Z,19.66
2023-02-28T00:07:08.975Z,19.66
2023-02-28T00:08:08.976Z,19.68
2023-02-28T00:09:08.962Z,19.63
2023-02-28T00:10:08.955Z,19.68
2023-02-28T00:11:08.944Z,19.66
2023-02-28T00:12:08.925Z,19.66
2023-02-28T00:13:08.912Z,19.66
2023-02-28T00:14:08.907Z,19.66
2023-02-28T00:15:08.909Z,19.66
2023-02-28T00:16:08.892Z,19.65
2023-02-28T00:17:08.873Z,19.66
2023-02-28T00:18:08.873Z,19.65
2023-02-28T00:19:08.854Z,19.65
2023-02-28T00:20:08.841Z,19.65
2023-02-28T00:21:08.846Z,19.66
2023-02-28T00:22:08.828Z,19.65
2023-02-28T00:23:08.813Z,19.65
2023-02-28T00:24:08.799Z,19.65
2023-02-28T00:25:08.780Z,19.65
2023-02-28T00:26:08.783Z,19.65
2023-02-28T00:27:08.767Z,19.65
2023-02-28T00:28:08.771Z,19.63
2023-02-28T00:29:08.738Z,19.65
2023-02-28T00:30:08.735Z,19.63
2023-02-28T00:31:08.871Z,19.65
2023-02-28T00:32:08.747Z,19.63
2023-02-28T00:33:08.699Z,19.65
2023-02-28T00:34:08.697Z,19.65
2023-02-28T00:35:08.669Z,19.65
2023-02-28T00:36:08.669Z,19.65
2023-02-28T00:37:08.648Z,19.65
2023-02-28T00:38:08.682Z,19.63
2023-02-28T00:39:08.643Z,19.61
2023-02-28T00:40:08.618Z,19.63
2023-02-28T00:41:08.609Z,19.65
2023-02-28T00:42:08.597Z,19.63
2023-02-28T00:43:08.600Z,19.63
2023-02-28T00:44:08.588Z,19.63
2023-02-28T00:45:08.559Z,19.63
2023-02-28T00:46:08.661Z,19.63
2023-02-28T00:47:08.538Z,19.63
2023-02-28T00:48:08.605Z,19.63
2023-02-28T00:49:08.526Z,19.61
2023-02-28T00:50:08.521Z,19.63
2023-02-28T00:51:08.505Z,19.63
2023-02-28T00:52:08.486Z,19.63
2023-02-28T00:53:08.473Z,19.63
2023-02-28T00:54:08.477Z,19.63
2023-02-28T00:55:08.470Z,19.61
2023-02-28T00:56:08.447Z,19.61
2023-02-28T00:57:08.432Z,19.61
2023-02-28T00:58:08.421Z,19.61
2023-02-28T00:59:08.410Z,19.63
2023-02-28T01:00:08.421Z,19.61
2023-02-28T01:01:08.459Z,19.63
2023-02-28T01:02:08.379Z,19.61
2023-02-28T01:03:08.364Z,19.61
2023-02-28T01:04:08.406Z,19.61
2023-02-28T01:05:08.361Z,19.61
2023-02-28T01:06:08.345Z,19.61
2023-02-28T01:07:08.325Z,19.61
2023-02-28T01:08:08.320Z,19.60
2023-02-28T01:09:08.308Z,19.61
2023-02-28T01:10:08.304Z,19.61
2023-02-28T01:11:08.279Z,19.61
2023-02-28T01:12:08.283Z,19.61
2023-02-28T01:13:08.260Z,19.63
2023-02-28T01:14:08.273Z,19.60
2023-02-28T01:15:08.248Z,19.61
2023-02-28T01:16:08.316Z,19.60
2023-02-28T01:17:08.217Z,19.60
2023-02-28T01:18:08.213Z,19.61
2023-02-28T01:19:08.213Z,19.61
2023-02-28T01:20:08.203Z,19.60
2023-02-28T01:21:08.184Z,19.61
2023-02-28T01:22:08.168Z,19.61
2023-02-28T01:23:08.149Z,19.60
2023-02-28T01:24:08.171Z,19.58
2023-02-28T01:25:08.209Z,19.63
2023-02-28T01:26:08.124Z,19.60
2023-02-28T01:27:08.107Z,19.60
2023-02-28T01:28:08.132Z,19.60
2023-02-28T01:29:08.114Z,19.60
2023-02-28T01:30:08.083Z,19.60
2023-02-28T01:31:08.108Z,19.60
2023-02-28T01:32:08.091Z,19.60
2023-02-28T01:33:08.046Z,19.58
2023-02-28T01:34:08.079Z,19.60
2023-02-28T01:35:08.033Z,19.58
2023-02-28T01:36:08.028Z,19.58
2023-02-28T01:37:08.002Z,19.58
2023-02-28T01:38:21.272Z,19.58
2023-02-28T01:39:07.987Z,19.60
2023-02-28T01:40:07.970Z,19.57
2023-02-28T01:41:07.956Z,19.58
2023-02-28T01:42:07.976Z,19.58
2023-02-28T01:43:08.022Z,19.60
2023-02-28T01:44:07.950Z,19.57
2023-02-28T01:45:07.915Z,19.58
2023-02-28T01:46:07.934Z,19.57
2023-02-28T01:47:07.894Z,19.58
2023-02-28T01:48:07.978Z,19.57
2023-02-28T01:49:07.864Z,19.58
2023-02-28T01:50:07.860Z,19.58
2023-02-28T01:51:07.851Z,19.58
2023-02-28T01:52:07.846Z,19.57
2023-02-28T01:53:07.826Z,19.57
2023-02-28T01:54:07.822Z,19.57
2023-02-28T01:55:07.815Z,19.58
2023-02-28T01:56:07.799Z,19.58
2023-02-28T01:57:07.800Z,19.57
2023-02-28T01:58:07.770Z,19.57
2023-02-28T01:59:07.767Z,19.57
2023-02-28T02:00:07.757Z,19.57
2023-02-28T02:01:07.739Z,19.57
2023-02-28T02:02:07.855Z,19.57
2023-02-28T02:03:07.765Z,19.57
2023-02-28T02:04:07.719Z,19.57
2023-02-28T02:05:07.699Z,19.57
2023-02-28T02:06:07.684Z,19.57
2023-02-28T02:07:07.681Z,19.57
2023-02-28T02:08:07.662Z,19.57
2023-02-28T02:09:07.645Z,19.55
2023-02-28T02:10:07.652Z,19.57
2023-02-28T02:11:07.626Z,19.58
2023-02-28T02:12:07.618Z,19.57
2023-02-28T02:13:07.614Z,19.57
2023-02-28T02:14:07.605Z,19.57
2023-02-28T02:15:07.586Z,19.57
2023-02-28T02:16:07.612Z,19.55
2023-02-28T02:17:07.562Z,19.55
2023-02-28T02:18:07.562Z,19.55
2023-02-28T02:19:07.539Z,19.57
2023-02-28T02:20:07.542Z,19.55
2023-02-28T02:21:13.500Z,19.55
2023-02-28T02:22:07.528Z,19.55
2023-02-28T02:23:07.508Z,19.57
2023-02-28T02:24:07.491Z,19.55
2023-02-28T02:25:07.477Z,19.55
2023-02-28T02:26:07.477Z,19.57
2023-02-28T02:27:07.468Z,19.55
2023-02-28T02:28:07.538Z,19.55
2023-02-28T02:29:07.432Z,19.55
2023-02-28T02:30:07.434Z,19.53
2023-02-28T02:31:07.453Z,19.54
2023-02-28T02:32:07.451Z,19.54
2023-02-28T02:33:07.400Z,19.55
2023-02-28T02:34:07.386Z,19.55
2023-02-28T02:35:07.378Z,19.54
2023-02-28T02:36:07.379Z,19.54
2023-02-28T02:37:07.351Z,19.54
2023-02-28T02:38:07.357Z,19.54
2023-02-28T02:39:07.363Z,19.55
2023-02-28T02:40:07.332Z,19.55
2023-02-28T02:41:07.309Z,19.54
2023-02-28T02:42:07.305Z,19.54
2023-02-28T02:43:07.296Z,19.55
2023-02-28T02:44:07.285Z,19.54
2023-02-28T02:45:07.269Z,19.55
2023-02-28T02:46:07.266Z,19.53
2023-02-28T02:47:07.249Z,19.53
2023-02-28T02:48:08.001Z,19.55
2023-02-28T02:49:07.264Z,19.54
2023-02-28T02:50:07.234Z,19.54
2023-02-28T02:51:07.206Z,19.54
2023-02-28T02:52:07.208Z,19.53
2023-02-28T02:53:07.200Z,19.53
2023-02-28T02:54:07.187Z,19.55
2023-02-28T02:55:07.164Z,19.54
2023-02-28T02:56:07.174Z,19.54
2023-02-28T02:57:07.144Z,19.55
2023-02-28T02:58:07.143Z,19.54
2023-02-28T02:59:07.134Z,19.54
2023-02-28T03:00:07.129Z,19.54
2023-02-28T03:01:07.139Z,19.53
2023-02-28T03:02:07.100Z,19.54
2023-02-28T03:03:07.095Z,19.53
2023-02-28T03:04:07.161Z,19.53
2023-02-28T03:05:07.081Z,19.54
2023-02-28T03:06:07.066Z,19.54
2023-02-28T03:07:07.047Z,19.53
2023-02-28T03:08:07.038Z,19.53
2023-02-28T03:09:07.033Z,19.53
2023-02-28T03:10:07.019Z,19.53
2023-02-28T03:11:07.006Z,19.54
2023-02-28T03:12:06.994Z,19.54
2023-02-28T03:13:06.982Z,19.53
2023-02-28T03:14:06.985Z,19.54
2023-02-28T03:15:06.985Z,19.53
2023-02-28T03:16:06.994Z,19.53
2023-02-28T03:17:06.937Z,19.53
2023-02-28T03:18:06.929Z,19.51
2023-02-28T03:19:06.924Z,19.53
2023-02-28T03:20:08.494Z,19.51
2023-02-28T03:21:06.896Z,19.53
2023-02-28T03:22:06.899Z,19.54
2023-02-28T03:23:06.886Z,19.51
2023-02-28T03:24:06.867Z,19.53
2023-02-28T03:25:06.860Z,19.53
2023-02-28T03:26:06.866Z,19.51
2023-02-28T03:27:06.858Z,19.53
2023-02-28T03:28:06.882Z,19.51
2023-02-28T03:29:06.839Z,19.51
2023-02-28T03:30:06.806Z,19.51
2023-02-28T03:31:06.803Z,19.51
2023-02-28T03:32:06.918Z,19.51
2023-02-28T03:33:06.775Z,19.53
2023-02-28T03:34:06.773Z,19.51
2023-02-28T03:35:06.763Z,19.51
2023-02-28T03:36:06.740Z,19.51
2023-02-28T03:37:06.860Z,19.51
2023-02-28T03:38:06.719Z,19.51
2023-02-28T03:39:06.720Z,19.53
2023-02-28T03:40:06.707Z,19.50
2023-02-28T03:41:06.693Z,19.51
2023-02-28T03:42:06.694Z,19.51
2023-02-28T03:43:06.682Z,19.51
2023-02-28T03:44:06.657Z,19.50
2023-02-28T03:45:06.657Z,19.53
2023-02-28T03:46:06.674Z,19.53
2023-02-28T03:47:06.666Z,19.51
2023-02-28T03:48:06.625Z,19.51
2023-02-28T03:49:06.615Z,19.50
2023-02-28T03:50:06.610Z,19.51
2023-02-28T03:51:06.590Z,19.51
2023-02-28T03:52:06.577Z,19.51
2023-02-28T03:53:06.581Z,19.51
2023-02-28T03:54:06.556Z,19.51
2023-02-28T03:55:06.547Z,19.51
2023-02-28T03:56:06.547Z,19.51
2023-02-28T03:57:06.540Z,19.51
2023-02-28T03:58:06.512Z,19.51
2023-02-28T03:59:06.517Z,19.50
2023-02-28T04:00:06.491Z,19.51
2023-02-28T04:01:06.488Z,19.50
2023-02-28T04:02:06.638Z,19.51
2023-02-28T04:03:06.522Z,19.51
2023-02-28T04:04:06.507Z,19.53
2023-02-28T04:05:06.466Z,19.50
2023-02-28T04:06:06.428Z,19.50
2023-02-28T04:07:06.429Z,19.50
2023-02-28T04:08:06.426Z,19.51
2023-02-28T04:09:06.436Z,19.48
2023-02-28T04:10:06.405Z,19.50
2023-02-28T04:11:06.386Z,19.50
2023-02-28T04:12:06.390Z,19.50
2023-02-28T04:13:06.366Z,19.50
2023-02-28T04:14:06.361Z,19.51
2023-02-28T04:15:06.337Z,19.48
2023-02-28T04:16:06.410Z,19.51
2023-02-28T04:17:06.331Z,19.50
2023-02-28T04:18:06.298Z,19.50
2023-02-28T04:19:06.475Z,19.48
2023-02-28T04:20:06.287Z,19.48
2023-02-28T04:21:06.280Z,19.50
2023-02-28T04:22:06.260Z,19.48
2023-02-28T04:23:06.262Z,19.50
2023-02-28T04:24:06.253Z,19.50
2023-02-28T04:25:06.237Z,19.48
2023-02-28T04:26:06.222Z,19.48
2023-02-28T04:27:06.220Z,19.47
2023-02-28T04:28:06.247Z,19.50
2023-02-28T04:29:06.208Z,19.48
2023-02-28T04:30:06.201Z,19.48
2023-02-28T04:31:06.180Z,19.48
2023-02-28T04:32:06.320Z,19.50
2023-02-28T04:33:06.153Z,19.48
2023-02-28T04:34:06.146Z,19.50
2023-02-28T04:35:06.152Z,19.48
2023-02-28T04:36:06.117Z,19.48
2023-02-28T04:37:13.386Z,19.48
2023-02-28T04:38:06.107Z,19.50
2023-02-28T04:39:06.119Z,19.50
2023-02-28T04:40:06.097Z,19.50
2023-02-28T04:41:06.084Z,19.48
2023-02-28T04:42:06.053Z,19.48
2023-02-28T04:43:06.056Z,19.48
2023-02-28T04:44:06.050Z,19.48
2023-02-28T04:45:06.037Z,19.48
2023-02-28T04:46:06.093Z,19.48
2023-02-28T04:47:06.003Z,19.48
2023-02-28T04:48:05.996Z,19.48
2023-02-28T04:49:05.994Z,19.50
2023-02-28T04:50:05.979Z,19.50
2023-02-28T04:51:05.967Z,19.51
2023-02-28T04:52:05.945Z,19.51
2023-02-28T04:53:05.941Z,19.53
2023-02-28T04:54:05.939Z,19.51
2023-02-28T04:55:05.932Z,19.53
2023-02-28T04:56:05.919Z,19.51
2023-02-28T04:57:05.909Z,19.51
2023-02-28T04:58:05.889Z,19.54
2023-02-28T04:59:05.879Z,19.55
2023-02-28T05:00:05.864Z,19.55
2023-02-28T05:01:05.865Z,19.57
2023-02-28T05:02:05.892Z,19.57
2023-02-28T05:03:05.838Z,19.58
2023-02-28T05:04:05.819Z,19.57
2023-02-28T05:05:05.826Z,19.57
2023-02-28T05:06:05.797Z,19.58
2023-02-28T05:07:05.820Z,19.60
2023-02-28T05:08:05.778Z,19.61
2023-02-28T05:09:05.776Z,19.60
2023-02-28T05:10:06.623Z,19.60
2023-02-28T05:11:05.764Z,19.61
2023-02-28T05:12:05.740Z,19.61
2023-02-28T05:13:05.763Z,19.61
2023-02-28T05:14:05.714Z,19.63
2023-02-28T05:15:05.707Z,19.63
2023-02-28T05:16:05.726Z,19.63
2023-02-28T05:17:05.702Z,19.65
2023-02-28T05:18:05.667Z,19.63
2023-02-28T05:19:05.756Z,19.65
2023-02-28T05:20:14.962Z,19.65
2023-02-28T05:21:05.646Z,19.63
2023-02-28T05:22:05.636Z,19.65
2023-02-28T05:23:05.622Z,19.65
2023-02-28T05:24:05.608Z,19.63
2023-02-28T05:25:05.615Z,19.63
2023-02-28T05:26:05.585Z,19.65
2023-02-28T05:27:05.587Z,19.66
2023-02-28T05:28:05.601Z,19.61
2023-02-28T05:29:05.558Z,19.63
2023-02-28T05:30:05.546Z,19.63
2023-02-28T05:31:05.609Z,19.63
2023-02-28T05:32:05.763Z,19.61
2023-02-28T05:33:05.526Z,19.63
2023-02-28T05:34:05.499Z,19.63
2023-02-28T05:35:05.504Z,19.61
2023-02-28T05:36:05.547Z,19.63
2023-02-28T05:37:05.476Z,19.61
2023-02-28T05:38:05.468Z,19.61
2023-02-28T05:39:05.449Z,19.61
2023-02-28T05:40:05.435Z,19.60
2023-02-28T05:41:05.430Z,19.61
2023-02-28T05:42:05.423Z,19.61
2023-02-28T05:43:05.404Z,19.60
2023-02-28T05:44:05.408Z,19.60
2023-02-28T05:45:05.388Z,19.60
2023-02-28T05:46:05.416Z,19.58
2023-02-28T05:47:05.372Z,19.60
2023-02-28T05:48:05.346Z,19.60
2023-02-28T05:49:05.545Z,19.60
2023-02-28T05:50:05.331Z,19.60
2023-02-28T05:51:05.334Z,19.58
2023-02-28T05:52:05.314Z,19.60
2023-02-28T05:53:05.298Z,19.58
2023-02-28T05:54:05.302Z,19.60
2023-02-28T05:55:05.284Z,19.57
2023-02-28T05:56:05.281Z,19.58
2023-02-28T05:57:12.635Z,19.58
2023-02-28T05:58:05.266Z,19.58
2023-02-28T05:59:05.246Z,19.58
2023-02-28T06:00:05.229Z,19.58
2023-02-28T06:01:05.236Z,19.58
2023-02-28T06:02:05.253Z,19.58
2023-02-28T06:03:05.251Z,19.58
2023-02-28T06:04:05.178Z,19.58
2023-02-28T06:05:05.202Z,19.58
2023-02-28T06:06:05.158Z,19.58
2023-02-28T06:07:05.168Z,19.58
2023-02-28T06:08:05.161Z,19.57
2023-02-28T06:09:05.135Z,19.60
2023-02-28T06:10:05.116Z,19.60
2023-02-28T06:11:05.113Z,19.60
2023-02-28T06:12:05.107Z,19.58
2023-02-28T06:13:05.091Z,19.60
2023-02-28T06:14:05.107Z,19.58
2023-02-28T06:15:05.075Z,19.60
2023-02-28T06:16:05.069Z,19.60
2023-02-28T06:17:05.129Z,19.60
2023-02-28T06:18:05.031Z,19.60
2023-02-28T06:19:05.040Z,19.60
2023-02-28T06:20:05.020Z,19.61
2023-02-28T06:21:05.006Z,19.60
2023-02-28T06:22:04.986Z,19.61
2023-02-28T06:23:05.012Z,19.61
2023-02-28T06:24:04.965Z,19.60
2023-02-28T06:25:04.971Z,19.61
2023-02-28T06:26:04.971Z,19.61
2023-02-28T06:27:04.941Z,19.61
2023-02-28T06:28:04.980Z,19.63
2023-02-28T06:29:04.929Z,19.61
2023-02-28T06:30:04.908Z,19.63
2023-02-28T06:31:04.944Z,19.65
2023-02-28T06:32:04.961Z,19.63
2023-02-28T06:33:04.893Z,19.63
2023-02-28T06:34:04.866Z,19.65
2023-02-28T06:35:04.871Z,19.63
2023-02-28T06:36:04.862Z,19.63
2023-02-28T06:37:04.844Z,19.65
2023-02-28T06:38:04.831Z,19.65
2023-02-28T06:39:04.818Z,19.65
2023-02-28T06:40:04.800Z,19.65
2023-02-28T06:41:04.800Z,19.63
2023-02-28T06:42:04.781Z,19.65
2023-02-28T06:43:04.784Z,19.65
2023-02-28T06:44:04.774Z,19.65
2023-02-28T06:45:04.761Z,19.65
2023-02-28T06:46:04.794Z,19.63
2023-02-28T06:47:04.731Z,19.63
2023-02-28T06:48:04.726Z,19.61
2023-02-28T06:49:04.714Z,19.63
2023-02-28T06:50:04.710Z,19.65
2023-02-28T06:51:04.737Z,19.61
2023-02-28T06:52:04.699Z,19.61
2023-02-28T06:53:04.684Z,19.63
2023-02-28T06:54:04.654Z,19.63
2023-02-28T06:55:04.654Z,19.61
2023-02-28T06:56:04.674Z,19.61
2023-02-28T06:57:04.628Z,19.60
2023-02-28T06:58:04.613Z,19.61
2023-02-28T06:59:04.632Z,19.60
2023-02-28T07:00:04.590Z,19.61
2023-02-28T07:01:04.590Z,19.60
2023-02-28T07:02:04.577Z,19.61
2023-02-28T07:03:04.561Z,19.60
2023-02-28T07:04:04.547Z,19.61
2023-02-28T07:05:04.569Z,19.60
2023-02-28T07:06:04.567Z,19.60
2023-02-28T07:07:04.538Z,19.60
2023-02-28T07:08:04.511Z,19.60
2023-02-28T07:09:04.498Z,19.60
2023-02-28T07:10:04.478Z,19.60
2023-02-28T07:11:04.516Z,19.58
2023-02-28T07:12:04.466Z,19.58
2023-02-28T07:13:04.456Z,19.58
2023-02-28T07:14:04.444Z,19.58
2023-02-28T07:15:04.431Z,19.60
2023-02-28T07:16:04.453Z,19.58
2023-02-28T07:17:04.405Z,19.58
2023-02-28T07:18:04.402Z,19.58
2023-02-28T07:19:04.393Z,19.60
2023-02-28T07:20:04.382Z,19.58
2023-02-28T07:21:04.376Z,19.57
2023-02-28T07:22:04.362Z,19.57
2023-02-28T07:23:04.372Z,19.58
2023-02-28T07:24:04.358Z,19.55
2023-02-28T07:25:04.333Z,19.57
2023-02-28T07:26:04.305Z,19.58
2023-02-28T07:27:04.307Z,19.58
2023-02-28T07:28:05.089Z,19.57
2023-02-28T07:29:04.295Z,19.58
2023-02-28T07:30:04.261Z,19.57
2023-02-28T07:31:04.350Z,19.57
2023-02-28T07:32:04.275Z,19.57
2023-02-28T07:33:04.247Z,19.57
2023-02-28T07:34:04.288Z,19.57
2023-02-28T07:35:04.241Z,19.57
2023-02-28T07:36:04.208Z,19.57
2023-02-28T07:37:04.193Z,19.55
2023-02-28T07:38:04.206Z,19.57
2023-02-28T07:39:04.200Z,19.57
2023-02-28T07:40:04.185Z,19.55
2023-02-28T07:41:04.203Z,19.57
2023-02-28T07:42:04.144Z,19.57
2023-02-28T07:43:04.136Z,19.57
2023-02-28T07:44:04.174Z,19.55
2023-02-28T07:45:04.116Z,19.55
2023-02-28T07:46:04.105Z,19.55
2023-02-28T07:47:04.150Z,19.54
2023-02-28T07:48:04.092Z,19.55
2023-02-28T07:49:04.083Z,19.57
2023-02-28T07:50:04.080Z,19.55
2023-02-28T07:51:04.061Z,19.55
2023-02-28T07:52:04.044Z,19.54
2023-02-28T07:53:04.037Z,19.53
2023-02-28T07:54:04.017Z,19.53
2023-02-28T07:55:04.009Z,19.53
2023-02-28T07:56:04.014Z,19.51
2023-02-28T07:57:04.026Z,19.50
2023-02-28T07:58:03.976Z,19.50
2023-02-28T07:59:03.966Z,19.50
2023-02-28T08:00:03.958Z,19.50
2023-02-28T08:01:03.960Z,19.48
2023-02-28T08:02:03.959Z,19.47
2023-02-28T08:03:03.923Z,19.47
2023-02-28T08:04:03.920Z,19.47
2023-02-28T08:05:03.933Z,19.47
2023-02-28T08:06:03.913Z,19.47
2023-02-28T08:07:03.888Z,19.47
2023-02-28T08:08:03.871Z,19.46
2023-02-28T08:09:03.863Z,19.48
2023-02-28T08:10:03.864Z,19.48
2023-02-28T08:11:04.437Z,19.48
2023-02-28T08:12:03.836Z,19.47
2023-02-28T08:13:03.819Z,19.48
2023-02-28T08:14:03.820Z,19.48
2023-02-28T08:15:03.805Z,19.50
2023-02-28T08:16:03.916Z,19.50
2023-02-28T08:17:03.783Z,19.51
2023-02-28T08:18:04.456Z,19.50
2023-02-28T08:19:03.753Z,19.53
2023-02-28T08:20:03.743Z,19.53
2023-02-28T08:21:03.743Z,19.53
2023-02-28T08:22:03.748Z,19.53
2023-02-28T08:23:03.711Z,19.53
2023-02-28T08:24:03.697Z,19.55
2023-02-28T08:25:03.700Z,19.54
2023-02-28T08:26:03.701Z,19.55
2023-02-28T08:27:03.710Z,19.55
2023-02-28T08:28:03.710Z,19.57
2023-02-28T08:29:03.652Z,19.57
2023-02-28T08:30:03.633Z,19.57
2023-02-28T08:31:03.636Z,19.57
2023-02-28T08:32:03.759Z,19.57
2023-02-28T08:33:03.667Z,19.57
2023-02-28T08:34:03.603Z,19.58
2023-02-28T08:35:03.577Z,19.58
2023-02-28T08:36:03.718Z,19.60
2023-02-28T08:37:03.560Z,19.60
2023-02-28T08:38:03.620Z,19.61
2023-02-28T08:39:03.535Z,19.60
2023-02-28T08:40:03.528Z,19.61
2023-02-28T08:41:03.523Z,19.61
2023-02-28T08:42:07.462Z,19.60
2023-02-28T08:43:03.493Z,19.60
2023-02-28T08:44:03.487Z,19.61
2023-02-28T08:45:03.445Z,19.63
2023-02-28T08:46:03.460Z,19.63
2023-02-28T08:47:03.448Z,19.63
2023-02-28T08:48:03.451Z,19.61
2023-02-28T08:49:03.438Z,19.65
2023-02-28T08:50:03.428Z,19.65
2023-02-28T08:51:08.111Z,19.65
2023-02-28T08:52:03.410Z,19.66
2023-02-28T08:53:03.360Z,19.65
2023-02-28T08:54:03.330Z,19.66
2023-02-28T08:55:03.321Z,19.65
2023-02-28T08:56:03.320Z,19.65
2023-02-28T08:57:03.302Z,19.65
2023-02-28T08:58:03.279Z,19.65
2023-02-28T08:59:03.293Z,19.65
2023-02-28T09:00:03.259Z,19.65
2023-02-28T09:01:03.323Z,19.65
2023-02-28T09:02:03.236Z,19.63
2023-02-28T09:03:04.015Z,19.66
2023-02-28T09:04:03.221Z,19.66
2023-02-28T09:05:03.204Z,19.66
2023-02-28T09:06:03.209Z,19.66
2023-02-28T09:07:03.181Z,19.65
2023-02-28T09:08:03.287Z,19.65
2023-02-28T09:09:03.160Z,19.66
2023-02-28T09:10:03.151Z,19.66
2023-02-28T09:11:03.553Z,19.66
2023-02-28T09:12:03.190Z,19.66
2023-02-28T09:13:03.112Z,19.66
2023-02-28T09:14:03.105Z,19.68
2023-02-28T09:15:03.124Z,19.66
2023-02-28T09:16:03.095Z,19.66
2023-02-28T09:18:03.642Z,19.68
2023-02-28T09:19:03.067Z,19.68
2023-02-28T09:20:03.059Z,19.66
2023-02-28T09:21:03.033Z,19.66
2023-02-28T09:22:03.061Z,19.68
2023-02-28T09:23:03.016Z,19.69
2023-02-28T09:24:03.017Z,19.68
2023-02-28T09:25:03.002Z,19.69
2023-02-28T09:26:02.984Z,19.68
2023-02-28T09:27:05.328Z,19.68
2023-02-28T09:28:03.014Z,19.68
2023-02-28T09:29:02.948Z,19.69
2023-02-28T09:30:02.953Z,19.68
2023-02-28T09:31:03.002Z,19.69
2023-02-28T09:32:03.103Z,19.69
2023-02-28T09:33:02.906Z,19.69
2023-02-28T09:34:02.974Z,19.69
2023-02-28T09:35:02.891Z,19.72
2023-02-28T09:36:02.926Z,19.70
2023-02-28T09:37:02.957Z,19.70
2023-02-28T09:38:02.865Z,19.72
2023-02-28T09:39:02.844Z,19.70
2023-02-28T09:40:02.851Z,19.70
2023-02-28T09:41:02.821Z,19.72
2023-02-28T09:42:02.812Z,19.72
2023-02-28T09:43:02.812Z,19.72
2023-02-28T09:44:02.807Z,19.70
2023-02-28T09:45:02.787Z,19.70
2023-02-28T09:46:02.833Z,19.70
2023-02-28T09:47:02.780Z,19.70
2023-02-28T09:48:02.755Z,19.72
2023-02-28T09:49:02.733Z,19.72
2023-02-28T09:50:02.784Z,19.70
2023-02-28T09:51:02.721Z,19.70
2023-02-28T09:52:02.715Z,19.70
2023-02-28T09:53:02.731Z,19.70
2023-02-28T09:54:02.748Z,19.72
2023-02-28T09:55:02.741Z,19.72
2023-02-28T09:56:02.716Z,19.70
2023-02-28T09:57:02.705Z,19.70
2023-02-28T09:58:02.706Z,19.72
2023-02-28T09:59:02.695Z,19.70
2023-02-28T10:00:02.706Z,19.69
2023-02-28T10:01:02.719Z,19.70
2023-02-28T10:02:02.659Z,19.70
2023-02-28T10:03:02.632Z,19.69
2023-02-28T10:04:02.648Z,19.70
2023-02-28T10:05:02.700Z,19.69
2023-02-28T10:06:02.608Z,19.69
2023-02-28T10:07:02.604Z,19.69
2023-02-28T10:08:02.601Z,19.69
2023-02-28T10:09:02.584Z,19.70
2023-02-28T10:10:02.571Z,19.69
2023-02-28T10:11:02.548Z,19.70
2023-02-28T10:12:02.545Z,19.69
2023-02-28T10:13:02.528Z,19.69
2023-02-28T10:14:02.728Z,19.69
2023-02-28T10:15:02.513Z,19.68
2023-02-28T10:16:02.515Z,19.66
2023-02-28T10:17:02.491Z,19.68
2023-02-28T10:18:08.947Z,19.68
2023-02-28T10:19:02.465Z,19.69
2023-02-28T10:20:02.464Z,19.68
2023-02-28T10:21:02.438Z,19.68
2023-02-28T10:22:02.441Z,19.68
2023-02-28T10:23:02.499Z,19.68
2023-02-28T10:24:02.414Z,19.68
2023-02-28T10:25:02.591Z,19.68
2023-02-28T10:26:02.391Z,19.66
2023-02-28T10:27:02.380Z,19.66
2023-02-28T10:28:02.427Z,19.68
2023-02-28T10:29:02.357Z,19.68
2023-02-28T10:30:02.365Z,19.66
2023-02-28T10:31:02.412Z,19.66
2023-02-28T10:32:08.315Z,19.68
2023-02-28T10:33:02.313Z,19.68
2023-02-28T10:34:02.309Z,19.68
2023-02-28T10:35:02.289Z,19.65
2023-02-28T10:36:02.347Z,19.66
2023-02-28T10:37:02.267Z,19.68
2023-02-28T10:38:02.265Z,19.66
2023-02-28T10:39:02.291Z,19.68
2023-02-28T10:40:02.239Z,19.68
2023-02-28T10:41:02.233Z,19.66
2023-02-28T10:42:02.225Z,19.66
2023-02-28T10:43:02.202Z,19.65
2023-02-28T10:44:02.193Z,19.66
2023-02-28T10:45:02.183Z,19.66
2023-02-28T10:46:02.192Z,19.65
2023-02-28T10:47:02.158Z,19.65
2023-02-28T10:48:02.163Z,19.65
2023-02-28T10:49:02.151Z,19.63
2023-02-28T10:50:02.134Z,19.65
2023-02-28T10:51:02.141Z,19.65
2023-02-28T10:52:02.122Z,19.66
2023-02-28T10:53:02.561Z,19.65
2023-02-28T10:54:02.724Z,19.66
2023-02-28T10:55:02.074Z,19.66
2023-02-28T10:56:02.057Z,19.65
2023-02-28T10:57:02.059Z,19.65
2023-02-28T10:58:02.053Z,19.65
2023-02-28T10:59:02.049Z,19.66
2023-02-28T11:00:02.022Z,19.66
2023-02-28T11:01:02.059Z,19.66
2023-02-28T11:02:02.048Z,19.66
2023-02-28T11:03:02.012Z,19.66
2023-02-28T11:04:01.998Z,19.66
2023-02-28T11:05:01.979Z,19.66
2023-02-28T11:06:01.986Z,19.66
2023-02-28T11:07:01.985Z,19.66
2023-02-28T11:08:01.981Z,19.66
2023-02-28T11:09:01.931Z,19.66
2023-02-28T11:10:01.926Z,19.66
2023-02-28T11:11:01.903Z,19.66
2023-02-28T11:12:01.975Z,19.65
2023-02-28T11:13:01.877Z,19.63
2023-02-28T11:14:01.861Z,19.66
2023-02-28T11:15:01.857Z,19.66
2023-02-28T11:16:01.864Z,19.65
2023-02-28T11:17:01.849Z,19.66
2023-02-28T11:18:01.835Z,19.65
2023-02-28T11:19:01.812Z,19.66
2023-02-28T11:20:01.793Z,19.66
2023-02-28T11:21:01.782Z,19.66
2023-02-28T11:22:01.785Z,19.66
2023-02-28T11:23:01.801Z,19.65
2023-02-28T11:24:01.804Z,19.66
2023-02-28T11:25:01.788Z,19.66
2023-02-28T11:26:01.812Z,19.66
2023-02-28T11:27:01.752Z,19.66
2023-02-28T11:28:01.795Z,19.66
2023-02-28T11:29:01.694Z,19.66
2023-02-28T11:30:01.639Z,19.66
2023-02-28T11:31:01.722Z,19.66
2023-02-28T11:32:01.737Z,19.66
2023-02-28T11:33:01.726Z,19.68
2023-02-28T11:34:01.842Z,19.66
2023-02-28T11:35:01.636Z,19.68
2023-02-28T11:36:01.658Z,19.66
2023-02-28T11:37:01.610Z,19.66
2023-02-28T11:38:01.598Z,19.65
2023-02-28T11:39:01.596Z,19.66
2023-02-28T11:40:01.598Z,19.66
2023-02-28T11:41:01.574Z,19.68
2023-02-28T11:42:01.561Z,19.68
2023-02-28T11:43:01.525Z,19.65
2023-02-28T11:44:01.557Z,19.69
2023-02-28T11:45:01.526Z,19.68
2023-02-28T11:46:01.526Z,19.66
2023-02-28T11:47:01.495Z,19.66
2023-02-28T11:48:01.486Z,19.66
2023-02-28T11:49:01.485Z,19.66
2023-02-28T11:50:01.477Z,19.68
2023-02-28T11:51:01.470Z,19.68
2023-02-28T11:52:01.441Z,19.68
2023-02-28T11:53:01.435Z,19.65
2023-02-28T11:54:01.426Z,19.66
2023-02-28T11:55:01.449Z,19.65
2023-02-28T11:56:01.403Z,19.66
2023-02-28T11:57:01.439Z,19.66
2023-02-28T11:58:01.376Z,19.66
2023-02-28T11:59:01.395Z,19.66
2023-02-28T12:00:01.425Z,19.65
2023-02-28T12:01:01.353Z,19.66
2023-02-28T12:02:01.409Z,19.66
2023-02-28T12:03:02.194Z,19.66
2023-02-28T12:04:01.327Z,19.65
2023-02-28T12:05:01.311Z,19.63
2023-02-28T12:06:01.303Z,19.65
2023-02-28T12:07:01.291Z,19.66
2023-02-28T12:08:01.369Z,19.63
2023-02-28T12:09:01.273Z,19.66
2023-02-28T12:10:01.207Z,19.66
2023-02-28T12:11:01.269Z,19.66
2023-02-28T12:12:01.241Z,19.65
2023-02-28T12:13:01.231Z,19.66
2023-02-28T12:14:01.212Z,19.66
2023-02-28T12:15:01.223Z,19.65
2023-02-28T12:16:01.258Z,19.66
2023-02-28T12:17:01.185Z,19.65
2023-02-28T12:18:01.176Z,19.63
2023-02-28T12:19:01.172Z,19.65
2023-02-28T12:20:01.154Z,19.66
2023-02-28T12:21:01.161Z,19.65
2023-02-28T12:22:01.134Z,19.65
2023-02-28T12:23:01.120Z,19.66
2023-02-28T12:24:01.120Z,19.65
2023-02-28T12:25:01.097Z,19.65
2023-02-28T12:26:01.091Z,19.65
2023-02-28T12:27:01.075Z,19.65
2023-02-28T12:28:01.071Z,19.63
2023-02-28T12:29:01.064Z,19.65
2023-02-28T12:30:01.041Z,19.66
2023-02-28T12:31:01.029Z,19.65
2023-02-28T12:32:01.107Z,19.65
2023-02-28T12:33:01.017Z,19.65
2023-02-28T12:34:01.013Z,19.65
2023-02-28T12:35:00.988Z,19.65
2023-02-28T12:36:01.051Z,19.65
2023-02-28T12:37:00.977Z,19.63
2023-02-28T12:38:00.954Z,19.65
2023-02-28T12:39:00.946Z,19.61
2023-02-28T12:40:00.950Z,19.65
2023-02-28T12:41:00.920Z,19.63
2023-02-28T12:42:00.909Z,19.65
2023-02-28T12:43:00.903Z,19.63
2023-02-28T12:44:00.884Z,19.63
2023-02-28T12:45:00.886Z,19.63
2023-02-28T12:46:00.931Z,19.63
2023-02-28T12:47:00.866Z,19.63
2023-02-28T12:48:00.844Z,19.61
2023-02-28T12:49:00.884Z,19.65
2023-02-28T12:50:00.831Z,19.63
2023-02-28T12:51:02.959Z,19.63
2023-02-28T12:52:00.813Z,19.61
2023-02-28T12:53:00.809Z,19.63